Victory — WDF9821 — position and weather

sailwx.info

Track history (hours):
 
Tides and Currents Weather Stations Pressure Air Temp Water Temp Dewpoint Dewpoint Depression Visibility Wind Speed Wind Dir Waves Ship Positions

Victory

Owner: Guyan, George V, White Stone, VA. More information available from US FCC via Universal Licensing System and Coast Guard Vessel Documentation Center.

Last reported at 2015-Mar-29 15:16 UTC. Time now 2015-May-23 13:27 UTC.
Position N 34°52' W 076°41'.
Warning: this ship's position is 54 days out of date.

Length 15 m.

Type: Sailing vessel. MMSI: 367509170.

Date/timePositionNaut miles runAvg speedWind from/ knotsBaromVisibWave heightAir tempDewpointWater temp
2015-Mar-29 15:16N 34°52' W 076°41'4 5.1
2015-Mar-29 14:33N 34°48' W 076°41'5 4.7
2015-Mar-29 13:33N 34°43' W 076°42'2 1.3
2015-Mar-29 12:25N 34°43' W 076°40'0 0.0
2015-Mar-29 11:31N 34°43' W 076°40'0 0.0
2015-Mar-29 10:28N 34°43' W 076°40'0 0.0
2015-Mar-29 09:25N 34°43' W 076°40'0 0.0
2015-Mar-29 08:22N 34°43' W 076°40'0 0.0
2015-Mar-29 07:25N 34°43' W 076°40'0 0.0
2015-Mar-29 06:31N 34°43' W 076°40'0 0.0
2015-Mar-29 03:31N 34°43' W 076°40'0 0.0
2015-Mar-29 02:31N 34°43' W 076°40'0 0.0
2015-Mar-29 01:31N 34°43' W 076°40'0 0.0
2015-Mar-29 00:28N 34°43' W 076°40'0 0.0
2015-Mar-28 23:31N 34°43' W 076°40'0 0.0
2015-Mar-28 22:28N 34°43' W 076°40'0 0.0
2015-Mar-28 21:31N 34°43' W 076°40'0 0.0
2015-Mar-28 20:31N 34°43' W 076°40'0 0.0
2015-Mar-28 19:31N 34°43' W 076°40'0 0.0
2015-Mar-28 18:28N 34°43' W 076°40'0 0.0
2015-Mar-28 17:31N 34°43' W 076°40'0 0.0
2015-Mar-28 16:31N 34°43' W 076°40'0 0.0
2015-Mar-28 15:32N 34°43' W 076°40'0 0.0
2015-Mar-28 14:32N 34°43' W 076°40'0 0.0
2015-Mar-28 13:29N 34°43' W 076°40'0 0.0
2015-Mar-28 12:32N 34°43' W 076°40'0 0.0
2015-Mar-28 11:29N 34°43' W 076°40'0 0.0
2015-Mar-28 10:20N 34°43' W 076°40'0 0.0
2015-Mar-28 09:32N 34°43' W 076°40'0 0.0
2015-Mar-28 08:32N 34°43' W 076°40'0 0.0
2015-Mar-28 07:29N 34°43' W 076°40'0 0.0
2015-Mar-28 06:26N 34°43' W 076°40'0 0.0
2015-Mar-28 05:32N 34°43' W 076°40'0 0.0
2015-Mar-28 04:29N 34°43' W 076°40'0 0.0
2015-Mar-28 03:17N 34°43' W 076°40'0 0.0
2015-Mar-28 02:11N 34°43' W 076°40'0 0.0
2015-Mar-28 01:29N 34°43' W 076°40'0 0.0
2015-Mar-28 00:26N 34°43' W 076°40'0 0.0
2015-Mar-27 23:32N 34°43' W 076°40'0 0.0
2015-Mar-27 22:32N 34°43' W 076°40'0 0.0
2015-Mar-27 21:26N 34°43' W 076°40'0 0.0
2015-Mar-27 20:32N 34°43' W 076°40'0 0.0
2015-Mar-27 19:29N 34°43' W 076°40'0 0.0
2015-Mar-27 18:32N 34°43' W 076°40'0 0.0
2015-Mar-27 17:32N 34°43' W 076°40'0 0.0
2015-Mar-27 16:32N 34°43' W 076°40'0 0.0
2015-Mar-27 15:32N 34°43' W 076°40'0 0.0
2015-Mar-27 14:32N 34°43' W 076°40'0 0.0
2015-Mar-27 13:32N 34°43' W 076°40'2 2.4
2015-Mar-27 12:33N 34°41' W 076°40'7 6.4
2015-Mar-27 11:30N 34°34' W 076°43'  
2015-Mar-24 15:33N 32°02' W 080°50'5 4.9
2015-Mar-24 14:33N 32°03' W 080°56'5 4.7
2015-Mar-24 13:33N 32°04' W 081°01'  
2015-Mar-20 22:10N 32°02' W 081°03'2 3.3
2015-Mar-20 21:33N 32°04' W 081°02'3 3.3
2015-Mar-20 20:34N 32°04' W 080°58'  
Track history (hours):
 
Tides and Currents Weather Stations Pressure Air Temp Water Temp Dewpoint Dewpoint Depression Visibility Wind Speed Wind Dir Waves Ship Positions

Victory

Owner: Guyan, George V, White Stone, VA. More information available from US FCC via Universal Licensing System and Coast Guard Vessel Documentation Center.

Last reported at 2015-Mar-29 15:16 UTC. Time now 2015-May-23 13:27 UTC.
Position N 34°52' W 076°41'.
Warning: this ship's position is 54 days out of date.

Length 15 m.

Type: Sailing vessel. MMSI: 367509170.

Date/timePositionNaut miles runAvg speedWind from/ knotsBaromVisibWave heightAir tempDewpointWater temp
2015-Mar-29 15:16N 34°52' W 076°41'4 5.1
2015-Mar-29 14:33N 34°48' W 076°41'5 4.7
2015-Mar-29 13:33N 34°43' W 076°42'2 1.3
2015-Mar-29 12:25N 34°43' W 076°40'0 0.0
2015-Mar-29 11:31N 34°43' W 076°40'0 0.0
2015-Mar-29 10:28N 34°43' W 076°40'0 0.0
2015-Mar-29 09:25N 34°43' W 076°40'0 0.0
2015-Mar-29 08:22N 34°43' W 076°40'0 0.0
2015-Mar-29 07:25N 34°43' W 076°40'0 0.0
2015-Mar-29 06:31N 34°43' W 076°40'0 0.0
2015-Mar-29 03:31N 34°43' W 076°40'0 0.0
2015-Mar-29 02:31N 34°43' W 076°40'0 0.0
2015-Mar-29 01:31N 34°43' W 076°40'0 0.0
2015-Mar-29 00:28N 34°43' W 076°40'0 0.0
2015-Mar-28 23:31N 34°43' W 076°40'0 0.0
2015-Mar-28 22:28N 34°43' W 076°40'0 0.0
2015-Mar-28 21:31N 34°43' W 076°40'0 0.0
2015-Mar-28 20:31N 34°43' W 076°40'0 0.0
2015-Mar-28 19:31N 34°43' W 076°40'0 0.0
2015-Mar-28 18:28N 34°43' W 076°40'0 0.0
2015-Mar-28 17:31N 34°43' W 076°40'0 0.0
2015-Mar-28 16:31N 34°43' W 076°40'0 0.0
2015-Mar-28 15:32N 34°43' W 076°40'0 0.0
2015-Mar-28 14:32N 34°43' W 076°40'0 0.0
2015-Mar-28 13:29N 34°43' W 076°40'0 0.0
2015-Mar-28 12:32N 34°43' W 076°40'0 0.0
2015-Mar-28 11:29N 34°43' W 076°40'0 0.0
2015-Mar-28 10:20N 34°43' W 076°40'0 0.0
2015-Mar-28 09:32N 34°43' W 076°40'0 0.0
2015-Mar-28 08:32N 34°43' W 076°40'0 0.0
2015-Mar-28 07:29N 34°43' W 076°40'0 0.0
2015-Mar-28 06:26N 34°43' W 076°40'0 0.0
2015-Mar-28 05:32N 34°43' W 076°40'0 0.0
2015-Mar-28 04:29N 34°43' W 076°40'0 0.0
2015-Mar-28 03:17N 34°43' W 076°40'0 0.0
2015-Mar-28 02:11N 34°43' W 076°40'0 0.0
2015-Mar-28 01:29N 34°43' W 076°40'0 0.0
2015-Mar-28 00:26N 34°43' W 076°40'0 0.0
2015-Mar-27 23:32N 34°43' W 076°40'0 0.0
2015-Mar-27 22:32N 34°43' W 076°40'0 0.0
2015-Mar-27 21:26N 34°43' W 076°40'0 0.0
2015-Mar-27 20:32N 34°43' W 076°40'0 0.0
2015-Mar-27 19:29N 34°43' W 076°40'0 0.0
2015-Mar-27 18:32N 34°43' W 076°40'0 0.0
2015-Mar-27 17:32N 34°43' W 076°40'0 0.0
2015-Mar-27 16:32N 34°43' W 076°40'0 0.0
2015-Mar-27 15:32N 34°43' W 076°40'0 0.0
2015-Mar-27 14:32N 34°43' W 076°40'0 0.0
2015-Mar-27 13:32N 34°43' W 076°40'2 2.4
2015-Mar-27 12:33N 34°41' W 076°40'7 6.4
2015-Mar-27 11:30N 34°34' W 076°43'  
2015-Mar-24 15:33N 32°02' W 080°50'5 4.9
2015-Mar-24 14:33N 32°03' W 080°56'5 4.7
2015-Mar-24 13:33N 32°04' W 081°01'  
2015-Mar-20 22:10N 32°02' W 081°03'2 3.3
2015-Mar-20 21:33N 32°04' W 081°02'3 3.3
2015-Mar-20 20:34N 32°04' W 080°58'  

Dump ship's entire track history